createdAt,value
2023-04-15T00:00:59.975Z,99797.07
2023-04-15T00:03:29.014Z,99803.63
2023-04-15T00:05:58.809Z,99789.46
2023-04-15T00:08:27.502Z,99766.42
2023-04-15T00:10:55.982Z,99771.86
2023-04-15T00:13:24.260Z,99796.09
2023-04-15T00:15:52.839Z,99811.90
2023-04-15T00:18:22.352Z,99822.23
2023-04-15T00:20:50.522Z,99818.23
2023-04-15T00:23:19.311Z,99814.19
2023-04-15T00:25:47.690Z,99806.15
2023-04-15T00:28:15.858Z,99800.41
2023-04-15T00:30:45.192Z,99806.36
2023-04-15T00:33:14.975Z,99811.35
2023-04-15T00:35:43.458Z,99809.00
2023-04-15T00:38:11.622Z,99806.10
2023-04-15T00:40:39.888Z,99807.58
2023-04-15T00:43:08.085Z,99816.54
2023-04-15T00:45:36.777Z,99828.83
2023-04-15T00:48:06.034Z,99829.91
2023-04-15T00:50:34.451Z,99821.25
2023-04-15T00:53:02.844Z,99820.04
2023-04-15T00:55:31.823Z,99816.69
2023-04-15T00:58:00.337Z,99821.11
2023-04-15T01:00:29.315Z,99825.47
2023-04-15T01:02:57.995Z,99830.64
2023-04-15T01:05:27.183Z,99837.77
2023-04-15T01:07:56.378Z,99829.84
2023-04-15T01:10:24.423Z,99825.30
2023-04-15T01:12:52.729Z,99816.21
2023-04-15T01:15:21.554Z,99819.30
2023-04-15T01:17:50.496Z,99828.19
2023-04-15T01:20:19.096Z,99832.84
2023-04-15T01:22:49.325Z,99844.67
2023-04-15T01:25:31.453Z,99842.09
2023-04-15T01:28:00.823Z,99836.27
2023-04-15T01:30:29.403Z,99840.45
2023-04-15T01:32:57.847Z,99838.90
2023-04-15T01:35:27.307Z,99846.68
2023-04-15T01:38:02.552Z,99836.55
2023-04-15T01:40:31.134Z,99833.73
2023-04-15T01:43:00.518Z,99828.58
2023-04-15T01:45:28.917Z,99828.50
2023-04-15T01:47:57.581Z,99828.09
2023-04-15T01:50:27.405Z,99829.49
2023-04-15T01:52:58.028Z,99824.80
2023-04-15T01:55:26.317Z,99820.46
2023-04-15T01:57:54.589Z,99819.55
2023-04-15T02:00:23.300Z,99819.36
2023-04-15T02:02:54.198Z,99825.73
2023-04-15T02:05:22.899Z,99836.83
2023-04-15T02:07:51.480Z,99848.92
2023-04-15T02:10:19.833Z,99844.74
2023-04-15T02:12:48.139Z,99843.31
2023-04-15T02:15:16.616Z,99836.80
2023-04-15T02:17:46.235Z,99825.05
2023-04-15T02:20:19.431Z,99823.94
2023-04-15T02:22:48.626Z,99820.66
2023-04-15T02:25:20.624Z,99817.98
2023-04-15T02:27:49.173Z,99820.17
2023-04-15T02:30:19.083Z,99819.44
2023-04-15T02:32:47.648Z,99815.69
2023-04-15T02:35:16.157Z,99814.92
2023-04-15T02:37:46.144Z,99811.05
2023-04-15T02:40:15.054Z,99812.70
2023-04-15T02:42:44.466Z,99817.67
2023-04-15T02:45:14.886Z,99816.76
2023-04-15T02:47:44.584Z,99814.70
2023-04-15T02:50:14.308Z,99807.83
2023-04-15T02:52:44.804Z,99807.19
2023-04-15T02:55:13.540Z,99805.41
2023-04-15T02:57:42.215Z,99802.56
2023-04-15T03:00:12.219Z,99804.09
2023-04-15T03:02:47.164Z,99800.59
2023-04-15T03:05:15.806Z,99804.89
2023-04-15T03:07:49.237Z,99818.70
2023-04-15T03:10:18.080Z,99823.48
2023-04-15T03:12:48.155Z,99829.76
2023-04-15T03:15:21.452Z,99833.88
2023-04-15T03:17:52.356Z,99835.67
2023-04-15T03:20:21.209Z,99829.67
2023-04-15T03:22:49.863Z,99817.80
2023-04-15T03:25:20.594Z,99806.13
2023-04-15T03:27:49.091Z,99809.92
2023-04-15T03:30:21.684Z,99820.00
2023-04-15T03:32:50.061Z,99819.88
2023-04-15T03:35:18.616Z,99832.58
2023-04-15T03:37:47.197Z,99852.39
2023-04-15T03:40:15.884Z,99857.56
2023-04-15T03:42:43.956Z,99854.30
2023-04-15T03:45:12.235Z,99853.73
2023-04-15T03:47:40.880Z,99844.74
2023-04-15T03:50:09.540Z,99830.60
2023-04-15T03:52:38.322Z,99832.36
2023-04-15T03:55:07.056Z,99838.21
2023-04-15T03:57:39.419Z,99856.95
2023-04-15T04:00:10.624Z,99873.36
2023-04-15T04:02:42.087Z,99891.66
2023-04-15T04:05:10.936Z,99900.95
2023-04-15T04:07:39.211Z,99904.77
2023-04-15T04:10:07.999Z,99905.04
2023-04-15T04:12:36.210Z,99899.79
2023-04-15T04:15:05.784Z,99904.65
2023-04-15T04:17:34.395Z,99902.83
2023-04-15T04:20:02.761Z,99904.27
2023-04-15T04:22:31.227Z,99908.29
2023-04-15T04:25:00.329Z,99903.45
2023-04-15T04:27:28.468Z,99892.33
2023-04-15T04:29:56.778Z,99887.37
2023-04-15T04:32:25.024Z,99894.17
2023-04-15T04:34:53.436Z,99887.35
2023-04-15T04:37:21.579Z,99886.11
2023-04-15T04:39:49.676Z,99890.25
2023-04-15T04:42:17.760Z,99883.04
2023-04-15T04:44:46.739Z,99886.30
2023-04-15T04:47:15.229Z,99887.91
2023-04-15T04:49:43.504Z,99891.44
2023-04-15T04:52:11.877Z,99886.81
2023-04-15T04:54:41.284Z,99881.65
2023-04-15T04:57:09.659Z,99883.18
2023-04-15T04:59:38.272Z,99884.28
2023-04-15T05:02:07.409Z,99879.80
2023-04-15T05:04:37.112Z,99880.73
2023-04-15T05:07:05.429Z,99888.61
2023-04-15T05:09:36.369Z,99888.01
2023-04-15T05:12:05.576Z,99895.56
2023-04-15T05:14:33.947Z,99898.90
2023-04-15T05:17:02.133Z,99895.23
2023-04-15T05:19:30.506Z,99900.66
2023-04-15T05:21:58.984Z,99904.02
2023-04-15T05:24:27.479Z,99910.98
2023-04-15T05:26:56.977Z,99915.56
2023-04-15T05:29:25.356Z,99921.26
2023-04-15T05:31:53.740Z,99915.92
2023-04-15T05:34:22.616Z,99918.50
2023-04-15T05:36:50.795Z,99922.40
2023-04-15T05:39:19.183Z,99926.19
2023-04-15T05:41:47.345Z,99929.64
2023-04-15T05:44:15.622Z,99927.98
2023-04-15T05:46:44.168Z,99935.06
2023-04-15T05:49:12.897Z,99934.36
2023-04-15T05:51:41.582Z,99940.27
2023-04-15T05:54:09.851Z,99942.76
2023-04-15T05:56:38.342Z,99949.91
2023-04-15T05:59:07.039Z,99956.21
2023-04-15T06:01:35.826Z,99960.84
2023-04-15T06:04:04.088Z,99968.93
2023-04-15T06:06:32.774Z,99979.16
2023-04-15T06:09:01.385Z,99980.29
2023-04-15T06:11:30.253Z,99974.16
2023-04-15T06:13:58.530Z,99968.17
2023-04-15T06:16:27.551Z,99961.14
2023-04-15T06:18:56.060Z,99957.17
2023-04-15T06:21:24.608Z,99956.28
2023-04-15T06:23:53.484Z,99960.41
2023-04-15T06:26:21.858Z,99960.08
2023-04-15T06:28:50.749Z,99960.85
2023-04-15T06:31:19.059Z,99959.07
2023-04-15T06:33:47.404Z,99959.19
2023-04-15T06:36:15.585Z,99965.34
2023-04-15T06:38:43.762Z,99958.56
2023-04-15T06:41:12.040Z,99956.91
2023-04-15T06:43:40.510Z,99957.04
2023-04-15T06:46:08.989Z,99954.64
2023-04-15T06:48:37.470Z,99951.91
2023-04-15T06:51:06.361Z,99949.56
2023-04-15T06:53:35.767Z,99955.48
2023-04-15T06:56:04.144Z,99957.71
2023-04-15T06:58:32.524Z,99960.27
2023-04-15T07:01:00.792Z,99965.64
2023-04-15T07:03:30.294Z,99965.73
2023-04-15T07:06:01.867Z,99965.10
2023-04-15T07:08:30.755Z,99969.55
2023-04-15T07:10:59.641Z,99970.20
2023-04-15T07:13:28.121Z,99976.81
2023-04-15T07:15:57.011Z,99975.27
2023-04-15T07:18:25.392Z,99981.18
2023-04-15T07:20:53.671Z,99982.66
2023-04-15T07:23:22.664Z,99985.73
2023-04-15T07:25:52.379Z,99984.45
2023-04-15T07:28:20.856Z,99985.34
2023-04-15T07:30:49.302Z,99995.42
2023-04-15T07:33:18.024Z,99999.81
2023-04-15T07:35:47.025Z,99996.98
2023-04-15T07:38:15.705Z,100000.83
2023-04-15T07:40:44.188Z,100006.77
2023-04-15T07:43:13.695Z,100006.02
2023-04-15T07:45:42.277Z,100012.74
2023-04-15T07:48:11.180Z,100013.98
2023-04-15T07:50:39.762Z,100015.43
2023-04-15T07:53:08.033Z,100024.20
2023-04-15T07:55:36.520Z,100027.66
2023-04-15T07:58:05.112Z,100031.80
2023-04-15T08:00:33.476Z,100038.10
2023-04-15T08:03:02.420Z,100042.90
2023-04-15T08:05:30.951Z,100041.23
2023-04-15T08:07:59.133Z,100043.73
2023-04-15T08:10:27.509Z,100044.47
2023-04-15T08:12:56.631Z,100045.04
2023-04-15T08:15:25.899Z,100040.80
2023-04-15T08:17:54.251Z,100044.55
2023-04-15T08:20:22.861Z,100039.52
2023-04-15T08:22:52.321Z,100039.17
2023-04-15T08:25:20.845Z,100048.59
2023-04-15T08:27:49.022Z,100047.80
2023-04-15T08:30:17.297Z,100051.49
2023-04-15T08:32:49.193Z,100055.39
2023-04-15T08:35:17.844Z,100055.95
2023-04-15T08:37:46.224Z,100050.16
2023-04-15T08:40:14.603Z,100049.75
2023-04-15T08:42:46.934Z,100055.54
2023-04-15T08:45:15.470Z,100061.77
2023-04-15T08:47:45.963Z,100061.21
2023-04-15T08:50:15.415Z,100060.84
2023-04-15T08:52:43.977Z,100059.16
2023-04-15T08:55:13.892Z,100062.48
2023-04-15T08:57:42.377Z,100062.38
2023-04-15T09:00:12.671Z,100056.34
2023-04-15T09:02:41.874Z,100058.69
2023-04-15T09:05:10.377Z,100053.86
2023-04-15T09:07:38.564Z,100054.63
2023-04-15T09:10:07.650Z,100051.44
2023-04-15T09:12:37.068Z,100044.56
2023-04-15T09:15:05.742Z,100046.30
2023-04-15T09:17:34.972Z,100042.93
2023-04-15T09:20:15.434Z,100042.48
2023-04-15T09:22:45.666Z,100037.29
2023-04-15T09:25:22.801Z,100037.02
2023-04-15T09:27:53.004Z,100036.62
2023-04-15T09:30:21.513Z,100040.47
2023-04-15T09:32:54.728Z,100040.48
2023-04-15T09:35:24.640Z,100042.75
2023-04-15T09:37:53.916Z,100037.85
2023-04-15T09:40:33.741Z,100034.35
2023-04-15T09:43:02.865Z,100037.56
2023-04-15T09:45:32.577Z,100034.67
2023-04-15T09:48:19.000Z,100029.77
2023-04-15T09:50:49.228Z,100033.69
2023-04-15T09:53:20.266Z,100035.92
2023-04-15T09:55:52.635Z,100036.75
2023-04-15T09:58:26.782Z,100036.27
2023-04-15T10:00:57.111Z,100032.00
2023-04-15T10:03:26.773Z,100022.32
2023-04-15T10:05:57.551Z,100025.00
2023-04-15T10:08:30.607Z,100022.46
2023-04-15T10:10:59.486Z,100021.31
2023-04-15T10:13:32.988Z,100020.08
2023-04-15T10:16:11.429Z,100027.70
2023-04-15T10:18:43.279Z,100018.84
2023-04-15T10:21:14.083Z,100010.88
2023-04-15T10:23:43.184Z,100013.84
2023-04-15T10:26:12.997Z,100013.75
2023-04-15T10:28:42.302Z,100013.08
2023-04-15T10:31:15.215Z,100014.61
2023-04-15T10:33:44.786Z,100014.44
2023-04-15T10:36:14.131Z,100024.33
2023-04-15T10:38:45.466Z,100022.65
2023-04-15T10:41:18.044Z,100025.15
2023-04-15T10:44:02.986Z,100025.56
2023-04-15T10:46:41.565Z,100025.67
2023-04-15T10:49:15.064Z,100021.29
2023-04-15T10:51:46.716Z,100024.74
2023-04-15T10:54:18.819Z,100020.66
2023-04-15T10:56:52.177Z,100023.48
2023-04-15T10:59:22.404Z,100024.92
2023-04-15T11:02:02.498Z,100036.34
2023-04-15T11:04:54.111Z,100037.74
2023-04-15T11:07:48.699Z,100030.77
2023-04-15T11:10:26.520Z,100029.05
2023-04-15T11:12:58.497Z,100031.92
2023-04-15T11:15:32.622Z,100037.85
2023-04-15T11:18:10.128Z,100033.27
2023-04-15T11:20:40.195Z,100036.23
2023-04-15T11:23:15.061Z,100040.35
2023-04-15T11:25:44.847Z,100035.58
2023-04-15T11:28:13.832Z,100040.92
2023-04-15T11:30:43.779Z,100036.75
2023-04-15T11:33:12.848Z,100045.33
2023-04-15T11:35:42.199Z,100046.67
2023-04-15T11:38:15.644Z,100041.92
2023-04-15T11:40:46.998Z,100030.07
2023-04-15T11:43:21.825Z,100031.59
2023-04-15T11:46:01.197Z,100031.84
2023-04-15T11:48:32.224Z,100032.70
2023-04-15T11:51:05.535Z,100033.29
2023-04-15T11:53:51.298Z,100033.34
2023-04-15T11:56:21.584Z,100036.17
2023-04-15T11:59:03.203Z,100030.58
2023-04-15T12:01:37.007Z,100026.15
2023-04-15T12:04:18.052Z,100019.55
2023-04-15T12:06:47.179Z,100020.95
2023-04-15T12:09:20.612Z,100014.08
2023-04-15T12:11:51.741Z,100012.61
2023-04-15T12:14:33.523Z,100016.05
2023-04-15T12:17:04.993Z,100014.77
2023-04-15T12:19:39.290Z,100012.44
2023-04-15T12:22:15.940Z,100011.88
2023-04-15T12:24:47.198Z,100014.63
2023-04-15T12:27:16.688Z,100016.93
2023-04-15T12:29:45.090Z,100022.91
2023-04-15T12:32:15.311Z,100019.28
2023-04-15T12:34:49.928Z,100018.26
2023-04-15T12:37:18.842Z,100018.95
2023-04-15T12:39:50.681Z,100026.07
2023-04-15T12:42:19.164Z,100023.50
2023-04-15T12:44:48.162Z,100017.91
2023-04-15T12:47:16.885Z,100015.63
2023-04-15T12:49:45.960Z,100019.09
2023-04-15T12:52:14.117Z,100023.27
2023-04-15T12:54:42.395Z,100024.69
2023-04-15T12:57:10.792Z,100016.50
2023-04-15T12:59:39.068Z,100016.31
2023-04-15T13:02:07.405Z,100019.02
2023-04-15T13:04:35.878Z,100018.41
2023-04-15T13:07:05.270Z,100014.80
2023-04-15T13:09:33.593Z,100018.33
2023-04-15T13:12:01.871Z,100009.25
2023-04-15T13:14:30.638Z,100005.96
2023-04-15T13:16:59.557Z,100003.54
2023-04-15T13:19:27.842Z,100005.77
2023-04-15T13:21:56.313Z,100002.52
2023-04-15T13:24:24.789Z,100000.91
2023-04-15T13:26:53.678Z,100000.59
2023-04-15T13:29:22.480Z,99992.60
2023-04-15T13:31:51.059Z,99993.73
2023-04-15T13:34:19.530Z,99998.73
2023-04-15T13:36:47.911Z,100000.06
2023-04-15T13:39:16.089Z,100002.61
2023-04-15T13:41:45.186Z,100002.80
2023-04-15T13:44:13.785Z,100005.04
2023-04-15T13:46:42.868Z,100009.95
2023-04-15T13:49:11.366Z,100013.69
2023-04-15T13:51:40.748Z,100018.80
2023-04-15T13:54:09.241Z,100019.78
2023-04-15T13:56:37.504Z,100017.41
2023-04-15T13:59:06.912Z,100021.48
2023-04-15T14:01:36.016Z,100027.22
2023-04-15T14:04:04.634Z,100024.13
2023-04-15T14:06:33.271Z,100026.06
2023-04-15T14:09:01.548Z,100029.88
2023-04-15T14:11:30.339Z,100027.59
2023-04-15T14:13:58.617Z,100027.94
2023-04-15T14:16:27.453Z,100029.09
2023-04-15T14:18:55.996Z,100030.14
2023-04-15T14:21:24.267Z,100037.59
2023-04-15T14:23:52.845Z,100036.59
2023-04-15T14:26:21.433Z,100039.84
2023-04-15T14:28:50.954Z,100046.70
2023-04-15T14:31:20.091Z,100046.83
2023-04-15T14:33:48.516Z,100050.44
2023-04-15T14:36:17.099Z,100048.75
2023-04-15T14:41:13.757Z,100055.36
2023-04-15T14:43:42.031Z,100051.90
2023-04-15T14:46:11.482Z,100056.56
2023-04-15T14:48:40.063Z,100055.20
2023-04-15T14:51:08.297Z,100056.95
2023-04-15T14:53:36.780Z,100061.01
2023-04-15T14:56:05.333Z,100062.77
2023-04-15T14:58:33.649Z,100064.56
2023-04-15T15:01:03.186Z,100065.50
2023-04-15T15:03:31.983Z,100067.80
2023-04-15T15:06:00.720Z,100069.36
2023-04-15T15:08:29.111Z,100077.05
2023-04-15T15:10:57.276Z,100075.92
2023-04-15T15:13:25.750Z,100075.59
2023-04-15T15:15:54.268Z,100073.77
2023-04-15T15:18:25.715Z,100074.80
2023-04-15T15:20:54.172Z,100077.47
2023-04-15T15:23:22.551Z,100077.36
2023-04-15T15:25:51.150Z,100082.12
2023-04-15T15:28:20.422Z,100081.34
2023-04-15T15:30:48.817Z,100081.25
2023-04-15T15:33:16.990Z,100084.96
2023-04-15T15:35:45.274Z,100086.31
2023-04-15T15:38:13.645Z,100084.98
2023-04-15T15:40:41.723Z,100086.48
2023-04-15T15:43:10.512Z,100089.80
2023-04-15T15:45:38.797Z,100089.80
2023-04-15T15:48:07.827Z,100088.71
2023-04-15T15:50:37.569Z,100090.41
2023-04-15T15:53:05.769Z,100092.15
2023-04-15T15:55:34.241Z,100093.61
2023-04-15T15:58:02.422Z,100091.54
2023-04-15T16:00:31.133Z,100092.52
2023-04-15T16:03:05.720Z,100090.77
2023-04-15T16:05:36.214Z,100090.06
2023-04-15T16:08:04.634Z,100094.57
2023-04-15T16:10:34.039Z,100091.27
2023-04-15T16:13:03.186Z,100091.13
2023-04-15T16:15:32.298Z,100087.40
2023-04-15T16:18:00.973Z,100088.96
2023-04-15T16:20:29.821Z,100088.48
2023-04-15T16:22:58.850Z,100093.27
2023-04-15T16:25:27.282Z,100093.98
2023-04-15T16:28:03.429Z,100099.52
2023-04-15T16:30:39.094Z,100099.30
2023-04-15T16:33:08.317Z,100099.08
2023-04-15T16:35:36.470Z,100102.23
2023-04-15T16:38:04.748Z,100102.80
2023-04-15T16:40:33.332Z,100103.38
2023-04-15T16:43:01.504Z,100106.52
2023-04-15T16:45:29.890Z,100110.60
2023-04-15T16:47:58.211Z,100112.29
2023-04-15T16:50:26.673Z,100111.71
2023-04-15T16:52:55.148Z,100116.37
2023-04-15T16:55:23.629Z,100113.10
2023-04-15T16:58:00.594Z,100117.90
2023-04-15T17:00:37.082Z,100116.32
2023-04-15T17:03:06.395Z,100117.91
2023-04-15T17:05:35.255Z,100120.11
2023-04-15T17:08:04.871Z,100119.77
2023-04-15T17:10:33.229Z,100123.52
2023-04-15T17:13:01.503Z,100124.17
2023-04-15T17:15:29.833Z,100126.32
2023-04-15T17:17:58.200Z,100129.67
2023-04-15T17:20:26.740Z,100130.05
2023-04-15T17:22:55.226Z,100126.52
2023-04-15T17:25:23.714Z,100125.25
2023-04-15T17:27:51.972Z,100123.38
2023-04-15T17:30:20.054Z,100125.77
2023-04-15T17:32:48.860Z,100125.93
2023-04-15T17:35:18.571Z,100129.27
2023-04-15T17:37:46.836Z,100135.02
2023-04-15T17:40:15.117Z,100138.75
2023-04-15T17:42:43.595Z,100136.00
2023-04-15T17:45:12.077Z,100141.55
2023-04-15T17:47:41.047Z,100147.30
2023-04-15T17:50:10.265Z,100151.16
2023-04-15T17:52:38.560Z,100149.34
2023-04-15T17:55:08.156Z,100151.43
2023-04-15T17:57:37.070Z,100154.35
2023-04-15T18:00:07.136Z,100155.52
2023-04-15T18:02:41.798Z,100158.33
2023-04-15T18:05:10.683Z,100163.26
2023-04-15T18:07:39.071Z,100167.56
2023-04-15T18:10:10.404Z,100169.91
2023-04-15T18:12:38.805Z,100172.36
2023-04-15T18:15:09.748Z,100178.52
2023-04-15T18:17:38.125Z,100181.84
2023-04-15T18:20:07.486Z,100187.74
2023-04-15T18:22:38.624Z,100186.67
2023-04-15T18:25:07.444Z,100189.38
2023-04-15T18:27:39.663Z,100194.33
2023-04-15T18:30:10.197Z,100195.98
2023-04-15T18:32:39.665Z,100198.33
2023-04-15T18:35:08.647Z,100199.27
2023-04-15T18:37:37.329Z,100202.61
2023-04-15T18:40:10.214Z,100205.08
2023-04-15T18:42:38.696Z,100204.42
2023-04-15T18:45:07.578Z,100211.02
2023-04-15T18:47:35.945Z,100208.77
2023-04-15T18:50:04.661Z,100205.84
2023-04-15T18:52:34.148Z,100205.52
2023-04-15T18:55:03.567Z,100202.11
2023-04-15T18:57:34.806Z,100202.11
2023-04-15T19:00:05.165Z,100202.05
2023-04-15T19:02:33.547Z,100198.09
2023-04-15T19:05:04.362Z,100196.45
2023-04-15T19:07:36.149Z,100198.52
2023-04-15T19:10:08.406Z,100195.56
2023-04-15T19:12:37.166Z,100198.24
2023-04-15T19:15:07.497Z,100201.30
2023-04-15T19:17:35.800Z,100200.48
2023-04-15T19:20:04.249Z,100200.14
2023-04-15T19:22:34.059Z,100200.95
2023-04-15T19:25:06.526Z,100204.08
2023-04-15T19:27:35.221Z,100200.95
2023-04-15T19:30:05.403Z,100202.15
2023-04-15T19:32:36.231Z,100206.26
2023-04-15T19:35:05.643Z,100205.20
2023-04-15T19:37:38.421Z,100200.39
2023-04-15T19:40:10.223Z,100200.71
2023-04-15T19:42:43.394Z,100204.71
2023-04-15T19:45:13.693Z,100207.89
2023-04-15T19:47:42.088Z,100208.65
2023-04-15T19:50:12.237Z,100207.00
2023-04-15T19:52:40.822Z,100207.77
2023-04-15T19:55:09.219Z,100209.36
2023-04-15T19:57:37.374Z,100211.65
2023-04-15T20:00:07.101Z,100211.81
2023-04-15T20:02:35.768Z,100213.90
2023-04-15T20:05:04.668Z,100209.39
2023-04-15T20:07:33.258Z,100211.04
2023-04-15T20:10:01.747Z,100213.17
2023-04-15T20:12:50.151Z,100215.73
2023-04-15T20:15:18.633Z,100213.42
2023-04-15T20:17:47.047Z,100212.70
2023-04-15T20:20:16.498Z,100214.27
2023-04-15T20:22:44.717Z,100215.64
2023-04-15T20:25:13.506Z,100215.80
2023-04-15T20:27:41.804Z,100212.12
2023-04-15T20:30:10.649Z,100213.02
2023-04-15T20:32:39.012Z,100214.91
2023-04-15T20:35:08.160Z,100214.48
2023-04-15T20:37:37.432Z,100216.93
2023-04-15T20:40:06.682Z,100218.67
2023-04-15T20:42:35.031Z,100219.20
2023-04-15T20:45:07.328Z,100221.14
2023-04-15T20:47:36.180Z,100217.92
2023-04-15T20:50:05.590Z,100223.00
2023-04-15T20:52:33.764Z,100222.21
2023-04-15T20:55:01.963Z,100217.43
2023-04-15T20:57:30.631Z,100215.72
2023-04-15T20:59:59.009Z,100212.20
2023-04-15T21:02:27.646Z,100213.42
2023-04-15T21:04:59.453Z,100215.86
2023-04-15T21:07:27.527Z,100211.09
2023-04-15T21:09:56.320Z,100214.79
2023-04-15T21:12:24.792Z,100212.30
2023-04-15T21:14:55.223Z,100210.75
2023-04-15T21:17:23.420Z,100210.18
2023-04-15T21:19:51.672Z,100208.30
2023-04-15T21:22:20.197Z,100214.31
2023-04-15T21:24:49.071Z,100217.14
2023-04-15T21:27:17.626Z,100220.33
2023-04-15T21:29:46.006Z,100218.36
2023-04-15T21:32:14.572Z,100222.80
2023-04-15T21:34:42.864Z,100220.30
2023-04-15T21:37:11.882Z,100223.41
2023-04-15T21:39:39.932Z,100221.55
2023-04-15T21:42:08.381Z,100219.74
2023-04-15T21:44:36.589Z,100221.84
2023-04-15T21:47:05.207Z,100226.37
2023-04-15T21:49:33.655Z,100225.23
2023-04-15T21:52:02.134Z,100221.11
2023-04-15T21:54:31.270Z,100222.20
2023-04-15T21:56:59.917Z,100220.40
2023-04-15T21:59:28.626Z,100224.06
2023-04-15T22:01:57.128Z,100220.73
2023-04-15T22:04:25.799Z,100216.45
2023-04-15T22:06:55.995Z,100218.05
2023-04-15T22:09:24.379Z,100217.55
2023-04-15T22:11:54.899Z,100216.29
2023-04-15T22:14:23.206Z,100216.61
2023-04-15T22:16:51.618Z,100220.05
2023-04-15T22:19:20.791Z,100221.79
2023-04-15T22:21:51.282Z,100222.50
2023-04-15T22:24:32.255Z,100224.98
2023-04-15T22:27:08.136Z,100226.23
2023-04-15T22:29:36.597Z,100223.77
2023-04-15T22:32:05.693Z,100224.64
2023-04-15T22:34:34.905Z,100224.86
2023-04-15T22:37:03.262Z,100225.62
2023-04-15T22:39:31.750Z,100222.77
2023-04-15T22:42:00.033Z,100216.59
2023-04-15T22:44:28.633Z,100215.65
2023-04-15T22:46:57.505Z,100214.05
2023-04-15T22:49:26.698Z,100214.04
2023-04-15T22:51:54.774Z,100208.55
2023-04-15T22:54:23.254Z,100207.98
2023-04-15T22:56:52.037Z,100204.81
2023-04-15T22:59:20.566Z,100202.52
2023-04-15T23:01:49.041Z,100204.09
2023-04-15T23:04:25.847Z,100197.80
2023-04-15T23:06:56.893Z,100195.67
2023-04-15T23:09:25.208Z,100192.49
2023-04-15T23:11:54.091Z,100191.12
2023-04-15T23:14:22.800Z,100189.54
2023-04-15T23:16:51.261Z,100185.88
2023-04-15T23:19:20.865Z,100186.20
2023-04-15T23:21:49.320Z,100187.09
2023-04-15T23:24:17.801Z,100188.66
2023-04-15T23:26:46.737Z,100188.89
2023-04-15T23:29:15.203Z,100196.48
2023-04-15T23:31:44.204Z,100199.98
2023-04-15T23:34:12.684Z,100207.30
2023-04-15T23:36:41.260Z,100208.38
2023-04-15T23:39:09.886Z,100205.58
2023-04-15T23:41:38.528Z,100201.77
2023-04-15T23:44:07.829Z,100196.29
2023-04-15T23:46:36.470Z,100194.95
2023-04-15T23:49:04.794Z,100190.77
2023-04-15T23:51:35.424Z,100189.33
2023-04-15T23:54:03.906Z,100185.37
2023-04-15T23:56:32.392Z,100183.69
2023-04-15T23:59:00.787Z,100181.46
